sensor_id;sensor_type;location;lat;lon;timestamp;P1;durP1;ratioP1;P2;durP2;ratioP2
41323;SDS011;27073;51.128;4.220;2023-06-05T00:02:22;6.35;;;2.70;;
41323;SDS011;27073;51.128;4.220;2023-06-05T00:04:48;7.60;;;3.33;;
41323;SDS011;27073;51.128;4.220;2023-06-05T00:07:14;7.97;;;3.35;;
41323;SDS011;27073;51.128;4.220;2023-06-05T00:09:39;7.65;;;2.95;;
41323;SDS011;27073;51.128;4.220;2023-06-05T00:12:06;11.48;;;3.40;;
41323;SDS011;27073;51.128;4.220;2023-06-05T00:14:32;5.65;;;2.97;;
41323;SDS011;27073;51.128;4.220;2023-06-05T00:16:57;6.10;;;3.20;;
41323;SDS011;27073;51.128;4.220;2023-06-05T00:19:23;6.32;;;2.70;;
41323;SDS011;27073;51.128;4.220;2023-06-05T00:21:49;7.13;;;2.75;;
41323;SDS011;27073;51.128;4.220;2023-06-05T00:24:16;6.28;;;3.08;;
41323;SDS011;27073;51.128;4.220;2023-06-05T00:26:42;7.47;;;2.97;;
41323;SDS011;27073;51.128;4.220;2023-06-05T00:29:07;6.22;;;3.47;;
41323;SDS011;27073;51.128;4.220;2023-06-05T00:31:33;5.78;;;2.80;;
41323;SDS011;27073;51.128;4.220;2023-06-05T00:33:59;7.32;;;3.25;;
41323;SDS011;27073;51.128;4.220;2023-06-05T00:36:24;7.57;;;2.97;;
41323;SDS011;27073;51.128;4.220;2023-06-05T00:38:50;4.78;;;2.75;;
41323;SDS011;27073;51.128;4.220;2023-06-05T00:41:16;6.30;;;3.40;;
41323;SDS011;27073;51.128;4.220;2023-06-05T00:43:42;7.72;;;3.53;;
41323;SDS011;27073;51.128;4.220;2023-06-05T00:46:08;6.47;;;3.33;;
41323;SDS011;27073;51.128;4.220;2023-06-05T00:48:36;9.68;;;3.33;;
41323;SDS011;27073;51.128;4.220;2023-06-05T00:51:03;6.55;;;3.30;;
41323;SDS011;27073;51.128;4.220;2023-06-05T00:53:29;7.47;;;2.97;;
41323;SDS011;27073;51.128;4.220;2023-06-05T00:55:57;6.05;;;2.97;;
41323;SDS011;27073;51.128;4.220;2023-06-05T00:58:24;8.35;;;2.92;;
41323;SDS011;27073;51.128;4.220;2023-06-05T01:00:51;6.95;;;2.72;;
41323;SDS011;27073;51.128;4.220;2023-06-05T01:03:19;6.80;;;3.08;;
41323;SDS011;27073;51.128;4.220;2023-06-05T01:05:48;7.88;;;2.90;;
41323;SDS011;27073;51.128;4.220;2023-06-05T01:08:14;11.43;;;3.90;;
41323;SDS011;27073;51.128;4.220;2023-06-05T01:10:42;6.88;;;2.97;;
41323;SDS011;27073;51.128;4.220;2023-06-05T01:13:23;6.30;;;2.92;;
41323;SDS011;27073;51.128;4.220;2023-06-05T01:15:51;7.90;;;3.58;;
41323;SDS011;27073;51.128;4.220;2023-06-05T01:18:20;9.02;;;4.00;;
41323;SDS011;27073;51.128;4.220;2023-06-05T01:20:47;5.00;;;2.92;;
41323;SDS011;27073;51.128;4.220;2023-06-05T01:23:13;5.20;;;3.17;;
41323;SDS011;27073;51.128;4.220;2023-06-05T01:25:39;6.20;;;2.95;;
41323;SDS011;27073;51.128;4.220;2023-06-05T01:28:17;6.25;;;2.70;;
41323;SDS011;27073;51.128;4.220;2023-06-05T01:30:52;8.75;;;3.05;;
41323;SDS011;27073;51.128;4.220;2023-06-05T01:33:33;7.03;;;3.20;;
41323;SDS011;27073;51.128;4.220;2023-06-05T01:36:09;7.10;;;3.78;;
41323;SDS011;27073;51.128;4.220;2023-06-05T01:38:37;5.68;;;3.03;;
41323;SDS011;27073;51.128;4.220;2023-06-05T01:41:05;4.93;;;2.88;;
41323;SDS011;27073;51.128;4.220;2023-06-05T01:43:32;6.38;;;3.83;;
41323;SDS011;27073;51.128;4.220;2023-06-05T01:45:58;7.78;;;3.38;;
41323;SDS011;27073;51.128;4.220;2023-06-05T01:48:25;5.57;;;3.25;;
41323;SDS011;27073;51.128;4.220;2023-06-05T01:50:58;9.00;;;3.97;;
41323;SDS011;27073;51.128;4.220;2023-06-05T01:53:25;5.87;;;3.23;;
41323;SDS011;27073;51.128;4.220;2023-06-05T01:55:52;7.00;;;3.40;;
41323;SDS011;27073;51.128;4.220;2023-06-05T01:58:22;5.68;;;3.05;;
41323;SDS011;27073;51.128;4.220;2023-06-05T02:00:49;7.40;;;3.60;;
41323;SDS011;27073;51.128;4.220;2023-06-05T02:03:16;9.25;;;3.95;;
41323;SDS011;27073;51.128;4.220;2023-06-05T02:05:44;7.97;;;3.35;;
41323;SDS011;27073;51.128;4.220;2023-06-05T02:08:10;7.15;;;3.50;;
41323;SDS011;27073;51.128;4.220;2023-06-05T02:10:37;5.25;;;3.30;;
41323;SDS011;27073;51.128;4.220;2023-06-05T02:13:05;6.38;;;3.42;;
41323;SDS011;27073;51.128;4.220;2023-06-05T02:15:31;6.05;;;3.40;;
41323;SDS011;27073;51.128;4.220;2023-06-05T02:18:01;7.90;;;4.05;;
41323;SDS011;27073;51.128;4.220;2023-06-05T02:20:30;5.95;;;3.72;;
41323;SDS011;27073;51.128;4.220;2023-06-05T02:22:57;6.82;;;3.63;;
41323;SDS011;27073;51.128;4.220;2023-06-05T02:25:24;10.20;;;4.15;;
41323;SDS011;27073;51.128;4.220;2023-06-05T02:27:51;5.22;;;3.15;;
41323;SDS011;27073;51.128;4.220;2023-06-05T02:30:17;9.15;;;3.33;;
41323;SDS011;27073;51.128;4.220;2023-06-05T02:32:43;5.38;;;3.10;;
41323;SDS011;27073;51.128;4.220;2023-06-05T02:35:09;10.73;;;4.32;;
41323;SDS011;27073;51.128;4.220;2023-06-05T02:37:37;7.93;;;3.78;;
41323;SDS011;27073;51.128;4.220;2023-06-05T02:40:10;7.72;;;3.35;;
41323;SDS011;27073;51.128;4.220;2023-06-05T02:42:37;9.65;;;3.83;;
41323;SDS011;27073;51.128;4.220;2023-06-05T02:45:03;7.18;;;3.63;;
41323;SDS011;27073;51.128;4.220;2023-06-05T02:47:30;6.43;;;3.22;;
41323;SDS011;27073;51.128;4.220;2023-06-05T02:49:56;6.35;;;4.13;;
41323;SDS011;27073;51.128;4.220;2023-06-05T02:52:22;9.00;;;4.40;;
41323;SDS011;27073;51.128;4.220;2023-06-05T02:54:50;8.40;;;3.75;;
41323;SDS011;27073;51.128;4.220;2023-06-05T02:57:16;7.10;;;3.67;;
41323;SDS011;27073;51.128;4.220;2023-06-05T02:59:43;7.03;;;4.30;;
41323;SDS011;27073;51.128;4.220;2023-06-05T03:02:12;7.60;;;4.25;;
41323;SDS011;27073;51.128;4.220;2023-06-05T03:04:41;9.82;;;3.80;;
41323;SDS011;27073;51.128;4.220;2023-06-05T03:07:08;7.18;;;4.05;;
41323;SDS011;27073;51.128;4.220;2023-06-05T03:09:35;7.93;;;3.88;;
41323;SDS011;27073;51.128;4.220;2023-06-05T03:12:02;9.07;;;3.92;;
41323;SDS011;27073;51.128;4.220;2023-06-05T03:14:29;6.38;;;4.13;;
41323;SDS011;27073;51.128;4.220;2023-06-05T03:16:56;7.90;;;3.95;;
41323;SDS011;27073;51.128;4.220;2023-06-05T03:19:24;8.00;;;4.38;;
41323;SDS011;27073;51.128;4.220;2023-06-05T03:21:51;9.57;;;4.30;;
41323;SDS011;27073;51.128;4.220;2023-06-05T03:24:18;8.15;;;4.57;;
41323;SDS011;27073;51.128;4.220;2023-06-05T03:26:49;6.75;;;4.50;;
41323;SDS011;27073;51.128;4.220;2023-06-05T03:29:15;7.72;;;3.95;;
41323;SDS011;27073;51.128;4.220;2023-06-05T03:31:42;7.95;;;4.05;;
41323;SDS011;27073;51.128;4.220;2023-06-05T03:34:09;6.82;;;4.35;;
41323;SDS011;27073;51.128;4.220;2023-06-05T03:36:36;7.55;;;4.45;;
41323;SDS011;27073;51.128;4.220;2023-06-05T03:39:06;9.85;;;4.85;;
41323;SDS011;27073;51.128;4.220;2023-06-05T03:41:33;5.20;;;4.10;;
41323;SDS011;27073;51.128;4.220;2023-06-05T03:44:00;9.10;;;4.60;;
41323;SDS011;27073;51.128;4.220;2023-06-05T03:46:29;6.07;;;4.65;;
41323;SDS011;27073;51.128;4.220;2023-06-05T03:48:56;7.95;;;4.28;;
41323;SDS011;27073;51.128;4.220;2023-06-05T03:51:27;9.32;;;4.45;;
41323;SDS011;27073;51.128;4.220;2023-06-05T03:53:55;8.73;;;4.90;;
41323;SDS011;27073;51.128;4.220;2023-06-05T03:56:23;8.23;;;4.80;;
41323;SDS011;27073;51.128;4.220;2023-06-05T04:01:20;9.73;;;4.68;;
41323;SDS011;27073;51.128;4.220;2023-06-05T04:03:45;7.30;;;4.18;;
41323;SDS011;27073;51.128;4.220;2023-06-05T04:06:11;6.60;;;5.03;;
41323;SDS011;27073;51.128;4.220;2023-06-05T04:08:37;9.73;;;4.63;;
41323;SDS011;27073;51.128;4.220;2023-06-05T04:11:03;10.63;;;4.57;;
41323;SDS011;27073;51.128;4.220;2023-06-05T04:13:29;9.05;;;4.65;;
41323;SDS011;27073;51.128;4.220;2023-06-05T04:15:55;8.32;;;4.68;;
41323;SDS011;27073;51.128;4.220;2023-06-05T04:18:21;8.07;;;4.50;;
41323;SDS011;27073;51.128;4.220;2023-06-05T04:20:49;7.32;;;4.85;;
41323;SDS011;27073;51.128;4.220;2023-06-05T04:23:16;9.15;;;4.88;;
41323;SDS011;27073;51.128;4.220;2023-06-05T04:25:43;8.68;;;5.63;;
41323;SDS011;27073;51.128;4.220;2023-06-05T04:28:11;7.35;;;4.57;;
41323;SDS011;27073;51.128;4.220;2023-06-05T04:30:37;11.45;;;4.90;;
41323;SDS011;27073;51.128;4.220;2023-06-05T04:33:03;7.78;;;4.85;;
41323;SDS011;27073;51.128;4.220;2023-06-05T04:35:31;10.45;;;5.53;;
41323;SDS011;27073;51.128;4.220;2023-06-05T04:37:58;9.20;;;4.93;;
41323;SDS011;27073;51.128;4.220;2023-06-05T04:40:26;7.95;;;4.78;;
41323;SDS011;27073;51.128;4.220;2023-06-05T04:42:53;6.97;;;4.70;;
41323;SDS011;27073;51.128;4.220;2023-06-05T04:45:21;10.73;;;5.30;;
41323;SDS011;27073;51.128;4.220;2023-06-05T04:47:47;5.95;;;4.68;;
41323;SDS011;27073;51.128;4.220;2023-06-05T04:50:26;6.55;;;4.75;;
41323;SDS011;27073;51.128;4.220;2023-06-05T04:52:58;6.75;;;4.40;;
41323;SDS011;27073;51.128;4.220;2023-06-05T04:55:24;7.13;;;4.90;;
41323;SDS011;27073;51.128;4.220;2023-06-05T04:57:53;9.00;;;4.95;;
41323;SDS011;27073;51.128;4.220;2023-06-05T05:00:19;8.35;;;5.20;;
41323;SDS011;27073;51.128;4.220;2023-06-05T05:02:46;8.25;;;4.78;;
41323;SDS011;27073;51.128;4.220;2023-06-05T05:05:12;7.45;;;5.00;;
41323;SDS011;27073;51.128;4.220;2023-06-05T05:07:42;7.60;;;4.63;;
41323;SDS011;27073;51.128;4.220;2023-06-05T05:10:09;6.00;;;5.20;;
41323;SDS011;27073;51.128;4.220;2023-06-05T05:12:36;9.30;;;5.28;;
41323;SDS011;27073;51.128;4.220;2023-06-05T05:15:03;7.60;;;5.07;;
41323;SDS011;27073;51.128;4.220;2023-06-05T05:17:30;9.00;;;5.30;;
41323;SDS011;27073;51.128;4.220;2023-06-05T05:19:56;6.47;;;5.15;;
41323;SDS011;27073;51.128;4.220;2023-06-05T05:22:24;8.45;;;5.57;;
41323;SDS011;27073;51.128;4.220;2023-06-05T05:24:51;11.02;;;5.20;;
41323;SDS011;27073;51.128;4.220;2023-06-05T05:27:16;8.73;;;5.47;;
41323;SDS011;27073;51.128;4.220;2023-06-05T05:29:44;6.53;;;5.05;;
41323;SDS011;27073;51.128;4.220;2023-06-05T05:32:09;10.45;;;5.32;;
41323;SDS011;27073;51.128;4.220;2023-06-05T05:34:35;7.43;;;5.10;;
41323;SDS011;27073;51.128;4.220;2023-06-05T05:37:02;8.25;;;5.40;;
41323;SDS011;27073;51.128;4.220;2023-06-05T05:39:29;9.20;;;5.65;;
41323;SDS011;27073;51.128;4.220;2023-06-05T05:41:55;7.63;;;5.78;;
41323;SDS011;27073;51.128;4.220;2023-06-05T05:44:21;7.88;;;5.38;;
41323;SDS011;27073;51.128;4.220;2023-06-05T05:46:47;8.93;;;6.18;;
41323;SDS011;27073;51.128;4.220;2023-06-05T05:49:12;8.30;;;5.65;;
41323;SDS011;27073;51.128;4.220;2023-06-05T05:51:39;8.55;;;5.80;;
41323;SDS011;27073;51.128;4.220;2023-06-05T05:54:05;11.95;;;7.32;;
41323;SDS011;27073;51.128;4.220;2023-06-05T05:56:31;11.70;;;6.45;;
41323;SDS011;27073;51.128;4.220;2023-06-05T05:58:58;8.65;;;5.78;;
41323;SDS011;27073;51.128;4.220;2023-06-05T06:01:23;10.30;;;6.05;;
41323;SDS011;27073;51.128;4.220;2023-06-05T06:03:49;8.85;;;5.53;;
41323;SDS011;27073;51.128;4.220;2023-06-05T06:06:15;8.73;;;5.78;;
41323;SDS011;27073;51.128;4.220;2023-06-05T06:08:41;12.20;;;5.90;;
41323;SDS011;27073;51.128;4.220;2023-06-05T06:11:07;8.07;;;5.78;;
41323;SDS011;27073;51.128;4.220;2023-06-05T06:13:33;6.82;;;5.80;;
41323;SDS011;27073;51.128;4.220;2023-06-05T06:16:00;10.85;;;6.25;;
41323;SDS011;27073;51.128;4.220;2023-06-05T06:18:26;10.98;;;5.90;;
41323;SDS011;27073;51.128;4.220;2023-06-05T06:20:52;12.15;;;6.03;;
41323;SDS011;27073;51.128;4.220;2023-06-05T06:23:18;11.43;;;6.03;;
41323;SDS011;27073;51.128;4.220;2023-06-05T06:25:44;10.95;;;6.35;;
41323;SDS011;27073;51.128;4.220;2023-06-05T06:28:10;7.95;;;5.82;;
41323;SDS011;27073;51.128;4.220;2023-06-05T06:30:36;10.05;;;6.35;;
41323;SDS011;27073;51.128;4.220;2023-06-05T06:33:01;7.70;;;6.63;;
41323;SDS011;27073;51.128;4.220;2023-06-05T06:35:29;9.13;;;6.22;;
41323;SDS011;27073;51.128;4.220;2023-06-05T06:37:57;7.35;;;5.97;;
41323;SDS011;27073;51.128;4.220;2023-06-05T06:40:23;8.98;;;6.30;;
41323;SDS011;27073;51.128;4.220;2023-06-05T06:42:49;7.68;;;6.07;;
41323;SDS011;27073;51.128;4.220;2023-06-05T06:45:34;9.68;;;6.40;;
41323;SDS011;27073;51.128;4.220;2023-06-05T06:48:00;8.38;;;5.90;;
41323;SDS011;27073;51.128;4.220;2023-06-05T06:50:25;6.32;;;5.72;;
41323;SDS011;27073;51.128;4.220;2023-06-05T06:52:52;10.88;;;6.53;;
41323;SDS011;27073;51.128;4.220;2023-06-05T06:55:17;9.60;;;6.07;;
41323;SDS011;27073;51.128;4.220;2023-06-05T06:57:43;8.02;;;6.05;;
41323;SDS011;27073;51.128;4.220;2023-06-05T07:00:09;10.70;;;6.07;;
41323;SDS011;27073;51.128;4.220;2023-06-05T07:02:35;9.65;;;7.00;;
41323;SDS011;27073;51.128;4.220;2023-06-05T07:05:02;7.70;;;6.05;;
41323;SDS011;27073;51.128;4.220;2023-06-05T07:07:28;10.60;;;6.28;;
41323;SDS011;27073;51.128;4.220;2023-06-05T07:09:54;7.78;;;5.45;;
41323;SDS011;27073;51.128;4.220;2023-06-05T07:12:22;8.75;;;6.28;;
41323;SDS011;27073;51.128;4.220;2023-06-05T07:14:48;11.40;;;6.13;;
41323;SDS011;27073;51.128;4.220;2023-06-05T07:17:15;7.80;;;5.90;;
41323;SDS011;27073;51.128;4.220;2023-06-05T07:19:40;7.95;;;6.07;;
41323;SDS011;27073;51.128;4.220;2023-06-05T07:22:06;8.13;;;6.45;;
41323;SDS011;27073;51.128;4.220;2023-06-05T07:24:32;8.48;;;5.95;;
41323;SDS011;27073;51.128;4.220;2023-06-05T07:27:01;12.88;;;6.53;;
41323;SDS011;27073;51.128;4.220;2023-06-05T07:29:27;10.13;;;6.38;;
41323;SDS011;27073;51.128;4.220;2023-06-05T07:31:54;8.57;;;7.13;;
41323;SDS011;27073;51.128;4.220;2023-06-05T07:34:21;8.88;;;7.10;;
41323;SDS011;27073;51.128;4.220;2023-06-05T07:36:48;9.25;;;6.95;;
41323;SDS011;27073;51.128;4.220;2023-06-05T07:39:15;9.63;;;6.63;;
41323;SDS011;27073;51.128;4.220;2023-06-05T07:41:42;10.88;;;7.38;;
41323;SDS011;27073;51.128;4.220;2023-06-05T07:44:12;11.02;;;8.30;;
41323;SDS011;27073;51.128;4.220;2023-06-05T07:46:39;12.68;;;7.70;;
41323;SDS011;27073;51.128;4.220;2023-06-05T07:49:06;10.70;;;7.85;;
41323;SDS011;27073;51.128;4.220;2023-06-05T07:51:33;9.43;;;7.57;;
41323;SDS011;27073;51.128;4.220;2023-06-05T07:54:07;10.23;;;6.90;;
41323;SDS011;27073;51.128;4.220;2023-06-05T07:56:35;9.75;;;7.55;;
41323;SDS011;27073;51.128;4.220;2023-06-05T07:59:02;8.88;;;7.68;;
41323;SDS011;27073;51.128;4.220;2023-06-05T08:01:29;11.45;;;7.53;;
41323;SDS011;27073;51.128;4.220;2023-06-05T08:03:55;9.38;;;8.35;;
41323;SDS011;27073;51.128;4.220;2023-06-05T08:06:23;9.30;;;7.55;;
41323;SDS011;27073;51.128;4.220;2023-06-05T08:08:50;10.30;;;7.15;;
41323;SDS011;27073;51.128;4.220;2023-06-05T08:11:16;10.57;;;6.97;;
41323;SDS011;27073;51.128;4.220;2023-06-05T08:13:42;10.45;;;7.20;;
41323;SDS011;27073;51.128;4.220;2023-06-05T08:16:08;13.20;;;7.45;;
41323;SDS011;27073;51.128;4.220;2023-06-05T08:18:33;12.85;;;7.90;;
41323;SDS011;27073;51.128;4.220;2023-06-05T08:20:59;10.60;;;7.53;;
41323;SDS011;27073;51.128;4.220;2023-06-05T08:23:25;7.85;;;6.70;;
41323;SDS011;27073;51.128;4.220;2023-06-05T08:25:52;10.75;;;7.97;;
41323;SDS011;27073;51.128;4.220;2023-06-05T08:28:18;8.95;;;7.43;;
41323;SDS011;27073;51.128;4.220;2023-06-05T08:30:43;11.80;;;8.60;;
41323;SDS011;27073;51.128;4.220;2023-06-05T08:33:09;10.77;;;7.57;;
41323;SDS011;27073;51.128;4.220;2023-06-05T08:35:35;9.40;;;7.55;;
41323;SDS011;27073;51.128;4.220;2023-06-05T08:38:02;11.20;;;8.00;;
41323;SDS011;27073;51.128;4.220;2023-06-05T08:40:28;9.05;;;7.22;;
41323;SDS011;27073;51.128;4.220;2023-06-05T08:42:57;9.05;;;7.18;;
41323;SDS011;27073;51.128;4.220;2023-06-05T08:45:24;10.75;;;8.43;;
41323;SDS011;27073;51.128;4.220;2023-06-05T08:47:50;10.55;;;8.32;;
41323;SDS011;27073;51.128;4.220;2023-06-05T08:50:17;10.88;;;8.13;;
41323;SDS011;27073;51.128;4.220;2023-06-05T08:52:43;11.73;;;7.40;;
41323;SDS011;27073;51.128;4.220;2023-06-05T08:55:11;9.13;;;6.72;;
41323;SDS011;27073;51.128;4.220;2023-06-05T08:57:40;11.82;;;7.78;;
41323;SDS011;27073;51.128;4.220;2023-06-05T09:00:07;10.45;;;7.53;;
41323;SDS011;27073;51.128;4.220;2023-06-05T09:02:37;8.95;;;7.20;;
41323;SDS011;27073;51.128;4.220;2023-06-05T09:05:04;10.48;;;7.45;;
41323;SDS011;27073;51.128;4.220;2023-06-05T09:07:31;11.40;;;7.65;;
41323;SDS011;27073;51.128;4.220;2023-06-05T09:09:57;11.48;;;7.65;;
41323;SDS011;27073;51.128;4.220;2023-06-05T09:12:23;11.20;;;7.65;;
41323;SDS011;27073;51.128;4.220;2023-06-05T09:14:51;9.73;;;7.40;;
41323;SDS011;27073;51.128;4.220;2023-06-05T09:17:16;10.80;;;7.82;;
41323;SDS011;27073;51.128;4.220;2023-06-05T09:19:43;8.82;;;7.00;;
41323;SDS011;27073;51.128;4.220;2023-06-05T09:22:10;9.70;;;7.20;;
41323;SDS011;27073;51.128;4.220;2023-06-05T09:24:37;9.65;;;6.97;;
41323;SDS011;27073;51.128;4.220;2023-06-05T09:27:09;9.65;;;6.60;;
41323;SDS011;27073;51.128;4.220;2023-06-05T09:29:38;11.65;;;7.43;;
41323;SDS011;27073;51.128;4.220;2023-06-05T09:32:06;9.52;;;7.13;;
41323;SDS011;27073;51.128;4.220;2023-06-05T09:34:39;10.77;;;7.22;;
41323;SDS011;27073;51.128;4.220;2023-06-05T09:37:06;9.50;;;6.85;;
41323;SDS011;27073;51.128;4.220;2023-06-05T09:39:34;9.63;;;7.32;;
41323;SDS011;27073;51.128;4.220;2023-06-05T09:42:01;9.80;;;6.53;;
41323;SDS011;27073;51.128;4.220;2023-06-05T09:44:27;10.23;;;6.93;;
41323;SDS011;27073;51.128;4.220;2023-06-05T09:46:54;8.80;;;6.57;;
41323;SDS011;27073;51.128;4.220;2023-06-05T09:49:46;9.63;;;6.72;;
41323;SDS011;27073;51.128;4.220;2023-06-05T09:52:15;10.63;;;6.97;;
41323;SDS011;27073;51.128;4.220;2023-06-05T09:54:42;13.32;;;6.78;;
41323;SDS011;27073;51.128;4.220;2023-06-05T09:57:10;9.20;;;6.28;;
41323;SDS011;27073;51.128;4.220;2023-06-05T09:59:49;12.73;;;6.80;;
41323;SDS011;27073;51.128;4.220;2023-06-05T10:02:17;11.95;;;6.80;;
41323;SDS011;27073;51.128;4.220;2023-06-05T10:04:49;12.10;;;7.18;;
41323;SDS011;27073;51.128;4.220;2023-06-05T10:07:21;9.32;;;7.68;;
41323;SDS011;27073;51.128;4.220;2023-06-05T10:09:48;11.13;;;6.40;;
41323;SDS011;27073;51.128;4.220;2023-06-05T10:12:15;11.80;;;6.72;;
41323;SDS011;27073;51.128;4.220;2023-06-05T10:14:42;12.90;;;6.68;;
41323;SDS011;27073;51.128;4.220;2023-06-05T10:17:11;9.85;;;6.13;;
41323;SDS011;27073;51.128;4.220;2023-06-05T10:19:41;10.68;;;6.30;;
41323;SDS011;27073;51.128;4.220;2023-06-05T10:22:09;9.75;;;5.75;;
41323;SDS011;27073;51.128;4.220;2023-06-05T10:24:40;11.80;;;6.93;;
41323;SDS011;27073;51.128;4.220;2023-06-05T10:27:24;8.95;;;7.00;;
41323;SDS011;27073;51.128;4.220;2023-06-05T10:32:59;11.15;;;7.88;;
41323;SDS011;27073;51.128;4.220;2023-06-05T10:35:37;11.02;;;7.07;;
41323;SDS011;27073;51.128;4.220;2023-06-05T10:40:39;8.57;;;6.47;;
41323;SDS011;27073;51.128;4.220;2023-06-05T10:43:23;8.07;;;6.32;;
41323;SDS011;27073;51.128;4.220;2023-06-05T10:45:57;12.43;;;7.78;;
41323;SDS011;27073;51.128;4.220;2023-06-05T10:51:40;8.80;;;6.57;;
41323;SDS011;27073;51.128;4.220;2023-06-05T10:54:08;9.07;;;6.55;;
41323;SDS011;27073;51.128;4.220;2023-06-05T10:59:16;13.80;;;6.53;;
41323;SDS011;27073;51.128;4.220;2023-06-05T11:01:42;8.23;;;6.35;;
41323;SDS011;27073;51.128;4.220;2023-06-05T11:04:08;9.18;;;6.60;;
41323;SDS011;27073;51.128;4.220;2023-06-05T11:06:34;11.02;;;6.78;;
41323;SDS011;27073;51.128;4.220;2023-06-05T11:09:06;8.80;;;6.05;;
41323;SDS011;27073;51.128;4.220;2023-06-05T11:14:22;9.00;;;6.80;;
41323;SDS011;27073;51.128;4.220;2023-06-05T11:16:48;7.97;;;5.78;;
41323;SDS011;27073;51.128;4.220;2023-06-05T11:22:06;13.38;;;6.63;;
41323;SDS011;27073;51.128;4.220;2023-06-05T11:24:34;9.15;;;6.05;;
41323;SDS011;27073;51.128;4.220;2023-06-05T11:27:03;8.27;;;6.22;;
41323;SDS011;27073;51.128;4.220;2023-06-05T11:29:30;9.23;;;6.68;;
41323;SDS011;27073;51.128;4.220;2023-06-05T11:31:57;8.90;;;6.50;;
41323;SDS011;27073;51.128;4.220;2023-06-05T11:34:24;11.75;;;6.80;;
41323;SDS011;27073;51.128;4.220;2023-06-05T11:36:50;9.18;;;6.50;;
41323;SDS011;27073;51.128;4.220;2023-06-05T11:39:16;12.02;;;6.65;;
41323;SDS011;27073;51.128;4.220;2023-06-05T11:41:49;10.23;;;6.10;;
41323;SDS011;27073;51.128;4.220;2023-06-05T11:44:29;10.88;;;7.43;;
41323;SDS011;27073;51.128;4.220;2023-06-05T11:46:57;14.85;;;7.65;;
41323;SDS011;27073;51.128;4.220;2023-06-05T11:49:26;9.43;;;7.25;;
41323;SDS011;27073;51.128;4.220;2023-06-05T11:51:53;9.80;;;6.47;;
41323;SDS011;27073;51.128;4.220;2023-06-05T11:54:26;9.27;;;6.65;;
41323;SDS011;27073;51.128;4.220;2023-06-05T11:57:00;9.25;;;6.20;;
41323;SDS011;27073;51.128;4.220;2023-06-05T11:59:34;10.90;;;6.22;;
41323;SDS011;27073;51.128;4.220;2023-06-05T12:02:00;9.85;;;6.97;;
41323;SDS011;27073;51.128;4.220;2023-06-05T12:04:28;10.10;;;6.80;;
41323;SDS011;27073;51.128;4.220;2023-06-05T12:06:55;11.10;;;7.00;;
41323;SDS011;27073;51.128;4.220;2023-06-05T12:09:21;7.80;;;6.50;;
41323;SDS011;27073;51.128;4.220;2023-06-05T12:11:47;10.82;;;6.20;;
41323;SDS011;27073;51.128;4.220;2023-06-05T12:14:27;6.78;;;6.05;;
41323;SDS011;27073;51.128;4.220;2023-06-05T12:16:54;7.57;;;5.70;;
41323;SDS011;27073;51.128;4.220;2023-06-05T12:19:20;7.47;;;6.03;;
41323;SDS011;27073;51.128;4.220;2023-06-05T12:21:46;11.63;;;6.68;;
41323;SDS011;27073;51.128;4.220;2023-06-05T12:24:13;6.65;;;5.85;;
41323;SDS011;27073;51.128;4.220;2023-06-05T12:26:52;8.95;;;5.65;;
41323;SDS011;27073;51.128;4.220;2023-06-05T12:29:25;11.80;;;6.20;;
41323;SDS011;27073;51.128;4.220;2023-06-05T12:31:53;8.75;;;6.43;;
41323;SDS011;27073;51.128;4.220;2023-06-05T12:37:27;12.38;;;6.18;;
41323;SDS011;27073;51.128;4.220;2023-06-05T12:39:57;11.40;;;5.32;;
41323;SDS011;27073;51.128;4.220;2023-06-05T12:42:27;7.82;;;6.13;;
41323;SDS011;27073;51.128;4.220;2023-06-05T12:44:53;14.35;;;5.35;;
41323;SDS011;27073;51.128;4.220;2023-06-05T12:47:19;6.72;;;5.18;;
41323;SDS011;27073;51.128;4.220;2023-06-05T12:49:45;6.75;;;4.68;;
41323;SDS011;27073;51.128;4.220;2023-06-05T12:52:11;8.90;;;6.20;;
41323;SDS011;27073;51.128;4.220;2023-06-05T12:54:37;10.63;;;5.55;;
41323;SDS011;27073;51.128;4.220;2023-06-05T12:57:06;7.28;;;5.47;;
41323;SDS011;27073;51.128;4.220;2023-06-05T12:59:33;7.78;;;5.15;;
41323;SDS011;27073;51.128;4.220;2023-06-05T13:01:58;8.68;;;4.30;;
41323;SDS011;27073;51.128;4.220;2023-06-05T13:04:24;7.32;;;5.15;;
41323;SDS011;27073;51.128;4.220;2023-06-05T13:06:50;10.32;;;5.20;;
41323;SDS011;27073;51.128;4.220;2023-06-05T13:09:16;5.90;;;4.88;;
41323;SDS011;27073;51.128;4.220;2023-06-05T13:11:42;6.00;;;4.15;;
41323;SDS011;27073;51.128;4.220;2023-06-05T13:14:07;9.05;;;4.47;;
41323;SDS011;27073;51.128;4.220;2023-06-05T13:16:33;7.80;;;4.40;;
41323;SDS011;27073;51.128;4.220;2023-06-05T13:18:59;6.13;;;4.60;;
41323;SDS011;27073;51.128;4.220;2023-06-05T13:21:25;6.20;;;3.70;;
41323;SDS011;27073;51.128;4.220;2023-06-05T13:23:51;4.78;;;3.53;;
41323;SDS011;27073;51.128;4.220;2023-06-05T13:26:17;6.00;;;3.58;;
41323;SDS011;27073;51.128;4.220;2023-06-05T13:28:43;6.50;;;3.35;;
41323;SDS011;27073;51.128;4.220;2023-06-05T13:31:11;5.53;;;3.50;;
41323;SDS011;27073;51.128;4.220;2023-06-05T13:33:39;6.15;;;3.83;;
41323;SDS011;27073;51.128;4.220;2023-06-05T13:36:06;10.80;;;4.28;;
41323;SDS011;27073;51.128;4.220;2023-06-05T13:38:32;7.38;;;3.58;;
41323;SDS011;27073;51.128;4.220;2023-06-05T13:40:58;6.03;;;3.53;;
41323;SDS011;27073;51.128;4.220;2023-06-05T13:43:23;6.15;;;3.58;;
41323;SDS011;27073;51.128;4.220;2023-06-05T13:45:49;6.40;;;3.35;;
41323;SDS011;27073;51.128;4.220;2023-06-05T13:48:15;7.95;;;3.47;;
41323;SDS011;27073;51.128;4.220;2023-06-05T13:50:41;5.45;;;3.80;;
41323;SDS011;27073;51.128;4.220;2023-06-05T13:53:06;6.10;;;2.85;;
41323;SDS011;27073;51.128;4.220;2023-06-05T13:55:32;4.50;;;2.75;;
41323;SDS011;27073;51.128;4.220;2023-06-05T13:57:58;6.43;;;2.50;;
41323;SDS011;27073;51.128;4.220;2023-06-05T14:00:27;4.40;;;2.97;;
41323;SDS011;27073;51.128;4.220;2023-06-05T14:02:54;4.65;;;2.28;;
41323;SDS011;27073;51.128;4.220;2023-06-05T14:05:20;5.07;;;2.75;;
41323;SDS011;27073;51.128;4.220;2023-06-05T14:07:45;5.30;;;3.20;;
41323;SDS011;27073;51.128;4.220;2023-06-05T14:10:11;3.38;;;2.67;;
41323;SDS011;27073;51.128;4.220;2023-06-05T14:12:37;7.72;;;3.42;;
41323;SDS011;27073;51.128;4.220;2023-06-05T14:15:03;7.80;;;3.15;;
41323;SDS011;27073;51.128;4.220;2023-06-05T14:17:29;5.20;;;2.63;;
41323;SDS011;27073;51.128;4.220;2023-06-05T14:19:54;4.70;;;3.33;;
41323;SDS011;27073;51.128;4.220;2023-06-05T14:22:20;5.30;;;3.05;;
41323;SDS011;27073;51.128;4.220;2023-06-05T14:24:46;5.15;;;3.20;;
41323;SDS011;27073;51.128;4.220;2023-06-05T14:27:12;8.77;;;3.35;;
41323;SDS011;27073;51.128;4.220;2023-06-05T14:29:38;8.73;;;4.13;;
41323;SDS011;27073;51.128;4.220;2023-06-05T14:32:04;7.20;;;3.80;;
41323;SDS011;27073;51.128;4.220;2023-06-05T14:34:30;6.97;;;3.65;;
41323;SDS011;27073;51.128;4.220;2023-06-05T14:36:57;9.98;;;3.63;;
41323;SDS011;27073;51.128;4.220;2023-06-05T14:39:22;9.65;;;4.55;;
41323;SDS011;27073;51.128;4.220;2023-06-05T14:41:48;5.38;;;3.85;;
41323;SDS011;27073;51.128;4.220;2023-06-05T14:44:14;7.97;;;3.90;;
41323;SDS011;27073;51.128;4.220;2023-06-05T14:46:39;7.40;;;4.63;;
41323;SDS011;27073;51.128;4.220;2023-06-05T14:49:05;6.20;;;3.78;;
41323;SDS011;27073;51.128;4.220;2023-06-05T14:51:31;5.25;;;3.90;;
41323;SDS011;27073;51.128;4.220;2023-06-05T14:53:57;6.25;;;3.60;;
41323;SDS011;27073;51.128;4.220;2023-06-05T14:56:22;6.35;;;3.75;;
41323;SDS011;27073;51.128;4.220;2023-06-05T14:58:48;6.07;;;3.33;;
41323;SDS011;27073;51.128;4.220;2023-06-05T15:01:16;7.60;;;3.55;;
41323;SDS011;27073;51.128;4.220;2023-06-05T15:03:42;4.85;;;3.20;;
41323;SDS011;27073;51.128;4.220;2023-06-05T15:06:10;5.80;;;3.25;;
41323;SDS011;27073;51.128;4.220;2023-06-05T15:08:35;5.63;;;3.00;;
41323;SDS011;27073;51.128;4.220;2023-06-05T15:11:01;4.53;;;3.00;;